sensor_id;sensor_type;location;lat;lon;timestamp;P1;durP1;ratioP1;P2;durP2;ratioP2
80211;SDS011;70434;37.956;23.722;2023-06-10T00:02:08;18.08;;;11.32;;
80211;SDS011;70434;37.956;23.722;2023-06-10T00:04:34;19.33;;;11.63;;
80211;SDS011;70434;37.956;23.722;2023-06-10T00:07:02;17.67;;;10.95;;
80211;SDS011;70434;37.956;23.722;2023-06-10T00:09:29;19.13;;;11.20;;
80211;SDS011;70434;37.956;23.722;2023-06-10T00:11:56;19.80;;;11.32;;
80211;SDS011;70434;37.956;23.722;2023-06-10T00:14:32;17.00;;;10.63;;
80211;SDS011;70434;37.956;23.722;2023-06-10T00:19:30;21.15;;;10.93;;
80211;SDS011;70434;37.956;23.722;2023-06-10T00:21:57;21.23;;;12.32;;
80211;SDS011;70434;37.956;23.722;2023-06-10T00:24:25;23.17;;;13.02;;
80211;SDS011;70434;37.956;23.722;2023-06-10T00:27:00;25.10;;;14.00;;
80211;SDS011;70434;37.956;23.722;2023-06-10T00:29:26;22.33;;;12.50;;
80211;SDS011;70434;37.956;23.722;2023-06-10T00:31:51;21.67;;;12.10;;
80211;SDS011;70434;37.956;23.722;2023-06-10T00:34:22;21.63;;;12.20;;
80211;SDS011;70434;37.956;23.722;2023-06-10T00:36:48;21.65;;;11.18;;
80211;SDS011;70434;37.956;23.722;2023-06-10T00:39:14;24.33;;;11.30;;
80211;SDS011;70434;37.956;23.722;2023-06-10T00:41:40;19.25;;;10.50;;
80211;SDS011;70434;37.956;23.722;2023-06-10T00:44:06;19.98;;;10.90;;
80211;SDS011;70434;37.956;23.722;2023-06-10T00:46:31;19.05;;;10.40;;
80211;SDS011;70434;37.956;23.722;2023-06-10T00:48:58;19.15;;;11.02;;
80211;SDS011;70434;37.956;23.722;2023-06-10T00:51:25;21.17;;;11.35;;
80211;SDS011;70434;37.956;23.722;2023-06-10T00:53:51;17.73;;;10.20;;
80211;SDS011;70434;37.956;23.722;2023-06-10T00:56:21;15.52;;;10.57;;
80211;SDS011;70434;37.956;23.722;2023-06-10T00:58:50;15.98;;;10.55;;
80211;SDS011;70434;37.956;23.722;2023-06-10T01:01:20;17.27;;;10.50;;
80211;SDS011;70434;37.956;23.722;2023-06-10T01:03:46;17.98;;;11.15;;
80211;SDS011;70434;37.956;23.722;2023-06-10T01:09:38;16.63;;;9.68;;
80211;SDS011;70434;37.956;23.722;2023-06-10T01:12:26;16.60;;;10.48;;
80211;SDS011;70434;37.956;23.722;2023-06-10T01:15:14;18.20;;;11.23;;
80211;SDS011;70434;37.956;23.722;2023-06-10T01:18:29;18.42;;;10.68;;
80211;SDS011;70434;37.956;23.722;2023-06-10T01:20:33;18.58;;;10.20;;
80211;SDS011;70434;37.956;23.722;2023-06-10T01:23:01;21.60;;;10.73;;
80211;SDS011;70434;37.956;23.722;2023-06-10T01:25:28;20.95;;;12.20;;
80211;SDS011;70434;37.956;23.722;2023-06-10T01:28:40;16.30;;;9.45;;
80211;SDS011;70434;37.956;23.722;2023-06-10T01:31:09;20.58;;;10.52;;
80211;SDS011;70434;37.956;23.722;2023-06-10T01:33:43;16.17;;;10.38;;
80211;SDS011;70434;37.956;23.722;2023-06-10T01:36:12;14.70;;;9.70;;
80211;SDS011;70434;37.956;23.722;2023-06-10T01:38:42;17.73;;;10.43;;
80211;SDS011;70434;37.956;23.722;2023-06-10T01:41:09;19.00;;;10.50;;
80211;SDS011;70434;37.956;23.722;2023-06-10T01:43:38;16.38;;;9.88;;
80211;SDS011;70434;37.956;23.722;2023-06-10T01:46:04;21.33;;;10.45;;
80211;SDS011;70434;37.956;23.722;2023-06-10T01:48:30;18.13;;;11.13;;
80211;SDS011;70434;37.956;23.722;2023-06-10T01:50:56;16.40;;;10.40;;
80211;SDS011;70434;37.956;23.722;2023-06-10T01:53:22;16.55;;;10.93;;
80211;SDS011;70434;37.956;23.722;2023-06-10T01:55:48;20.80;;;11.27;;
80211;SDS011;70434;37.956;23.722;2023-06-10T01:58:14;14.18;;;10.80;;
80211;SDS011;70434;37.956;23.722;2023-06-10T02:00:40;19.95;;;10.93;;
80211;SDS011;70434;37.956;23.722;2023-06-10T02:03:06;18.13;;;11.23;;
80211;SDS011;70434;37.956;23.722;2023-06-10T02:05:31;16.08;;;10.00;;
80211;SDS011;70434;37.956;23.722;2023-06-10T02:07:57;16.48;;;11.10;;
80211;SDS011;70434;37.956;23.722;2023-06-10T02:10:23;15.10;;;10.15;;
80211;SDS011;70434;37.956;23.722;2023-06-10T02:12:49;19.23;;;10.00;;
80211;SDS011;70434;37.956;23.722;2023-06-10T02:15:15;16.75;;;10.52;;
80211;SDS011;70434;37.956;23.722;2023-06-10T02:17:41;15.15;;;10.32;;
80211;SDS011;70434;37.956;23.722;2023-06-10T02:20:07;17.17;;;10.88;;
80211;SDS011;70434;37.956;23.722;2023-06-10T02:22:35;19.55;;;10.75;;
80211;SDS011;70434;37.956;23.722;2023-06-10T02:25:02;15.70;;;10.13;;
80211;SDS011;70434;37.956;23.722;2023-06-10T02:27:28;19.73;;;11.98;;
80211;SDS011;70434;37.956;23.722;2023-06-10T02:29:55;21.48;;;11.55;;
80211;SDS011;70434;37.956;23.722;2023-06-10T02:32:21;16.48;;;10.52;;
80211;SDS011;70434;37.956;23.722;2023-06-10T02:34:47;23.42;;;11.20;;
80211;SDS011;70434;37.956;23.722;2023-06-10T02:37:16;19.95;;;11.45;;
80211;SDS011;70434;37.956;23.722;2023-06-10T02:39:42;19.08;;;11.40;;
80211;SDS011;70434;37.956;23.722;2023-06-10T02:42:08;17.40;;;10.35;;
80211;SDS011;70434;37.956;23.722;2023-06-10T02:44:35;17.33;;;11.40;;
80211;SDS011;70434;37.956;23.722;2023-06-10T02:47:00;19.23;;;10.63;;
80211;SDS011;70434;37.956;23.722;2023-06-10T02:49:26;15.25;;;10.25;;
80211;SDS011;70434;37.956;23.722;2023-06-10T02:51:55;21.23;;;11.25;;
80211;SDS011;70434;37.956;23.722;2023-06-10T02:54:22;17.58;;;10.70;;
80211;SDS011;70434;37.956;23.722;2023-06-10T02:56:48;17.48;;;10.85;;
80211;SDS011;70434;37.956;23.722;2023-06-10T02:59:14;17.05;;;11.32;;
80211;SDS011;70434;37.956;23.722;2023-06-10T03:01:40;23.23;;;11.60;;
80211;SDS011;70434;37.956;23.722;2023-06-10T03:04:06;22.00;;;10.90;;
80211;SDS011;70434;37.956;23.722;2023-06-10T03:06:33;17.02;;;10.68;;
80211;SDS011;70434;37.956;23.722;2023-06-10T03:09:02;20.38;;;11.43;;
80211;SDS011;70434;37.956;23.722;2023-06-10T03:11:29;17.00;;;11.25;;
80211;SDS011;70434;37.956;23.722;2023-06-10T03:13:56;16.35;;;10.30;;
80211;SDS011;70434;37.956;23.722;2023-06-10T03:16:22;15.73;;;10.60;;
80211;SDS011;70434;37.956;23.722;2023-06-10T03:18:50;18.02;;;11.43;;
80211;SDS011;70434;37.956;23.722;2023-06-10T03:21:17;19.65;;;12.85;;
80211;SDS011;70434;37.956;23.722;2023-06-10T03:23:43;21.52;;;11.48;;
80211;SDS011;70434;37.956;23.722;2023-06-10T03:26:08;26.73;;;11.70;;
80211;SDS011;70434;37.956;23.722;2023-06-10T03:28:35;21.10;;;11.15;;
80211;SDS011;70434;37.956;23.722;2023-06-10T03:31:01;17.45;;;10.73;;
80211;SDS011;70434;37.956;23.722;2023-06-10T03:33:27;19.00;;;11.85;;
80211;SDS011;70434;37.956;23.722;2023-06-10T03:35:52;16.80;;;10.90;;
80211;SDS011;70434;37.956;23.722;2023-06-10T03:38:18;18.67;;;10.95;;
80211;SDS011;70434;37.956;23.722;2023-06-10T03:40:44;18.08;;;10.90;;
80211;SDS011;70434;37.956;23.722;2023-06-10T03:43:10;23.25;;;11.68;;
80211;SDS011;70434;37.956;23.722;2023-06-10T03:45:36;19.20;;;10.18;;
80211;SDS011;70434;37.956;23.722;2023-06-10T03:48:02;17.48;;;10.23;;
80211;SDS011;70434;37.956;23.722;2023-06-10T03:50:28;15.60;;;9.25;;
80211;SDS011;70434;37.956;23.722;2023-06-10T03:52:54;19.10;;;10.43;;
80211;SDS011;70434;37.956;23.722;2023-06-10T03:55:20;15.15;;;9.85;;
80211;SDS011;70434;37.956;23.722;2023-06-10T03:57:47;17.70;;;9.73;;
80211;SDS011;70434;37.956;23.722;2023-06-10T04:00:14;18.30;;;10.07;;
80211;SDS011;70434;37.956;23.722;2023-06-10T04:02:40;16.80;;;10.88;;
80211;SDS011;70434;37.956;23.722;2023-06-10T04:05:15;15.43;;;10.35;;
80211;SDS011;70434;37.956;23.722;2023-06-10T04:07:41;21.33;;;11.48;;
80211;SDS011;70434;37.956;23.722;2023-06-10T04:10:09;18.92;;;10.48;;
80211;SDS011;70434;37.956;23.722;2023-06-10T04:12:36;17.60;;;10.13;;
80211;SDS011;70434;37.956;23.722;2023-06-10T04:15:02;18.38;;;11.48;;
80211;SDS011;70434;37.956;23.722;2023-06-10T04:17:28;23.60;;;11.38;;
80211;SDS011;70434;37.956;23.722;2023-06-10T04:19:54;22.95;;;10.90;;
80211;SDS011;70434;37.956;23.722;2023-06-10T04:22:21;20.08;;;11.60;;
80211;SDS011;70434;37.956;23.722;2023-06-10T04:24:47;20.30;;;11.57;;
80211;SDS011;70434;37.956;23.722;2023-06-10T04:27:13;16.02;;;11.27;;
80211;SDS011;70434;37.956;23.722;2023-06-10T04:29:39;20.05;;;11.38;;
80211;SDS011;70434;37.956;23.722;2023-06-10T04:32:05;17.77;;;9.90;;
80211;SDS011;70434;37.956;23.722;2023-06-10T04:34:34;16.40;;;10.32;;
80211;SDS011;70434;37.956;23.722;2023-06-10T04:37:01;17.75;;;11.20;;
80211;SDS011;70434;37.956;23.722;2023-06-10T04:39:27;14.38;;;10.98;;
80211;SDS011;70434;37.956;23.722;2023-06-10T04:41:53;16.52;;;12.05;;
80211;SDS011;70434;37.956;23.722;2023-06-10T04:44:19;17.15;;;10.35;;
80211;SDS011;70434;37.956;23.722;2023-06-10T04:46:44;18.83;;;11.10;;
80211;SDS011;70434;37.956;23.722;2023-06-10T04:49:10;23.50;;;12.07;;
80211;SDS011;70434;37.956;23.722;2023-06-10T04:51:39;21.67;;;11.13;;
80211;SDS011;70434;37.956;23.722;2023-06-10T04:54:05;18.58;;;11.52;;
80211;SDS011;70434;37.956;23.722;2023-06-10T04:56:31;18.98;;;10.98;;
80211;SDS011;70434;37.956;23.722;2023-06-10T04:58:57;19.48;;;11.38;;
80211;SDS011;70434;37.956;23.722;2023-06-10T05:01:24;16.45;;;11.25;;
80211;SDS011;70434;37.956;23.722;2023-06-10T05:03:50;16.50;;;11.02;;
80211;SDS011;70434;37.956;23.722;2023-06-10T05:06:15;21.00;;;12.15;;
80211;SDS011;70434;37.956;23.722;2023-06-10T05:08:41;21.13;;;11.82;;
80211;SDS011;70434;37.956;23.722;2023-06-10T05:11:07;18.30;;;10.50;;
80211;SDS011;70434;37.956;23.722;2023-06-10T05:13:33;19.17;;;11.90;;
80211;SDS011;70434;37.956;23.722;2023-06-10T05:15:59;16.00;;;11.27;;
80211;SDS011;70434;37.956;23.722;2023-06-10T05:18:25;18.10;;;11.15;;
80211;SDS011;70434;37.956;23.722;2023-06-10T05:20:51;18.88;;;12.23;;
80211;SDS011;70434;37.956;23.722;2023-06-10T05:23:19;18.27;;;11.55;;
80211;SDS011;70434;37.956;23.722;2023-06-10T05:25:45;15.95;;;10.68;;
80211;SDS011;70434;37.956;23.722;2023-06-10T05:28:11;18.40;;;11.63;;
80211;SDS011;70434;37.956;23.722;2023-06-10T05:30:36;21.63;;;16.98;;
80211;SDS011;70434;37.956;23.722;2023-06-10T05:33:03;18.25;;;12.77;;
80211;SDS011;70434;37.956;23.722;2023-06-10T05:35:29;19.90;;;12.55;;
80211;SDS011;70434;37.956;23.722;2023-06-10T05:37:55;22.67;;;12.35;;
80211;SDS011;70434;37.956;23.722;2023-06-10T05:40:21;20.73;;;15.32;;
80211;SDS011;70434;37.956;23.722;2023-06-10T05:42:46;15.77;;;11.57;;
80211;SDS011;70434;37.956;23.722;2023-06-10T05:45:12;20.75;;;13.95;;
80211;SDS011;70434;37.956;23.722;2023-06-10T05:47:38;19.65;;;11.20;;
80211;SDS011;70434;37.956;23.722;2023-06-10T05:50:04;18.33;;;9.95;;
80211;SDS011;70434;37.956;23.722;2023-06-10T05:52:33;19.27;;;13.77;;
80211;SDS011;70434;37.956;23.722;2023-06-10T05:54:59;21.80;;;13.73;;
80211;SDS011;70434;37.956;23.722;2023-06-10T05:57:25;15.95;;;8.82;;
80211;SDS011;70434;37.956;23.722;2023-06-10T05:59:51;17.02;;;9.60;;
80211;SDS011;70434;37.956;23.722;2023-06-10T06:02:17;22.20;;;8.73;;
80211;SDS011;70434;37.956;23.722;2023-06-10T06:04:43;14.88;;;7.65;;
80211;SDS011;70434;37.956;23.722;2023-06-10T06:07:10;13.18;;;7.57;;
80211;SDS011;70434;37.956;23.722;2023-06-10T06:09:36;13.73;;;7.47;;
80211;SDS011;70434;37.956;23.722;2023-06-10T06:12:10;16.55;;;6.80;;
80211;SDS011;70434;37.956;23.722;2023-06-10T06:14:39;10.65;;;7.35;;
80211;SDS011;70434;37.956;23.722;2023-06-10T06:17:05;15.02;;;7.85;;
80211;SDS011;70434;37.956;23.722;2023-06-10T06:19:31;14.73;;;8.70;;
80211;SDS011;70434;37.956;23.722;2023-06-10T06:21:57;11.40;;;6.85;;
80211;SDS011;70434;37.956;23.722;2023-06-10T06:24:23;17.58;;;8.63;;
80211;SDS011;70434;37.956;23.722;2023-06-10T06:26:48;13.57;;;7.25;;
80211;SDS011;70434;37.956;23.722;2023-06-10T06:29:14;15.82;;;7.45;;
80211;SDS011;70434;37.956;23.722;2023-06-10T06:31:40;17.60;;;7.47;;
80211;SDS011;70434;37.956;23.722;2023-06-10T06:34:06;11.40;;;6.75;;
80211;SDS011;70434;37.956;23.722;2023-06-10T06:36:31;17.73;;;7.20;;
80211;SDS011;70434;37.956;23.722;2023-06-10T06:38:57;11.57;;;6.85;;
80211;SDS011;70434;37.956;23.722;2023-06-10T06:41:24;13.18;;;7.13;;
80211;SDS011;70434;37.956;23.722;2023-06-10T06:43:53;13.15;;;6.68;;
80211;SDS011;70434;37.956;23.722;2023-06-10T06:46:19;11.98;;;7.20;;
80211;SDS011;70434;37.956;23.722;2023-06-10T06:48:46;18.75;;;7.32;;
80211;SDS011;70434;37.956;23.722;2023-06-10T06:51:12;14.20;;;7.05;;
80211;SDS011;70434;37.956;23.722;2023-06-10T06:53:38;11.27;;;7.10;;
80211;SDS011;70434;37.956;23.722;2023-06-10T06:56:09;11.63;;;7.35;;
80211;SDS011;70434;37.956;23.722;2023-06-10T06:58:36;15.23;;;7.13;;
80211;SDS011;70434;37.956;23.722;2023-06-10T07:01:02;11.27;;;7.25;;
80211;SDS011;70434;37.956;23.722;2023-06-10T07:03:28;17.00;;;6.72;;
80211;SDS011;70434;37.956;23.722;2023-06-10T07:05:53;11.65;;;6.65;;
80211;SDS011;70434;37.956;23.722;2023-06-10T07:08:19;12.13;;;6.53;;
80211;SDS011;70434;37.956;23.722;2023-06-10T07:10:45;14.82;;;7.25;;
80211;SDS011;70434;37.956;23.722;2023-06-10T07:13:11;13.13;;;7.35;;
80211;SDS011;70434;37.956;23.722;2023-06-10T07:15:38;18.27;;;7.50;;
80211;SDS011;70434;37.956;23.722;2023-06-10T07:18:09;12.52;;;7.50;;
80211;SDS011;70434;37.956;23.722;2023-06-10T07:20:35;11.82;;;6.10;;
80211;SDS011;70434;37.956;23.722;2023-06-10T07:23:01;17.58;;;7.55;;
80211;SDS011;70434;37.956;23.722;2023-06-10T07:25:30;22.85;;;10.52;;
80211;SDS011;70434;37.956;23.722;2023-06-10T07:27:56;17.75;;;7.55;;
80211;SDS011;70434;37.956;23.722;2023-06-10T07:30:21;13.45;;;7.65;;
80211;SDS011;70434;37.956;23.722;2023-06-10T07:32:47;17.00;;;7.13;;
80211;SDS011;70434;37.956;23.722;2023-06-10T07:35:13;11.60;;;6.68;;
80211;SDS011;70434;37.956;23.722;2023-06-10T07:37:39;12.50;;;7.03;;
80211;SDS011;70434;37.956;23.722;2023-06-10T07:40:05;13.93;;;7.47;;
80211;SDS011;70434;37.956;23.722;2023-06-10T07:42:32;15.80;;;6.80;;
80211;SDS011;70434;37.956;23.722;2023-06-10T07:44:59;11.10;;;6.97;;
80211;SDS011;70434;37.956;23.722;2023-06-10T07:47:26;13.50;;;7.22;;
80211;SDS011;70434;37.956;23.722;2023-06-10T07:49:52;16.15;;;7.07;;
80211;SDS011;70434;37.956;23.722;2023-06-10T07:52:18;16.40;;;7.85;;
80211;SDS011;70434;37.956;23.722;2023-06-10T07:54:43;14.63;;;7.43;;
80211;SDS011;70434;37.956;23.722;2023-06-10T07:57:10;15.77;;;7.10;;
80211;SDS011;70434;37.956;23.722;2023-06-10T07:59:35;13.25;;;7.10;;
80211;SDS011;70434;37.956;23.722;2023-06-10T08:02:01;10.52;;;6.25;;
80211;SDS011;70434;37.956;23.722;2023-06-10T08:04:27;13.93;;;7.53;;
80211;SDS011;70434;37.956;23.722;2023-06-10T08:06:53;13.30;;;6.80;;
80211;SDS011;70434;37.956;23.722;2023-06-10T08:09:18;12.68;;;7.30;;
80211;SDS011;70434;37.956;23.722;2023-06-10T08:11:46;18.52;;;10.57;;
80211;SDS011;70434;37.956;23.722;2023-06-10T08:14:12;11.43;;;6.88;;
80211;SDS011;70434;37.956;23.722;2023-06-10T08:16:38;14.77;;;7.90;;
80211;SDS011;70434;37.956;23.722;2023-06-10T08:19:10;15.98;;;7.55;;
80211;SDS011;70434;37.956;23.722;2023-06-10T08:21:36;14.43;;;7.65;;
80211;SDS011;70434;37.956;23.722;2023-06-10T08:24:04;10.98;;;7.15;;
80211;SDS011;70434;37.956;23.722;2023-06-10T08:26:34;11.27;;;7.13;;
80211;SDS011;70434;37.956;23.722;2023-06-10T08:28:59;13.05;;;7.03;;
80211;SDS011;70434;37.956;23.722;2023-06-10T08:31:25;15.63;;;7.25;;
80211;SDS011;70434;37.956;23.722;2023-06-10T08:33:51;15.55;;;7.60;;
80211;SDS011;70434;37.956;23.722;2023-06-10T08:36:17;16.58;;;7.63;;
80211;SDS011;70434;37.956;23.722;2023-06-10T08:38:44;9.57;;;7.10;;
80211;SDS011;70434;37.956;23.722;2023-06-10T08:41:10;15.10;;;7.53;;
80211;SDS011;70434;37.956;23.722;2023-06-10T08:43:40;11.32;;;7.00;;
80211;SDS011;70434;37.956;23.722;2023-06-10T08:49:18;13.85;;;7.93;;
80211;SDS011;70434;37.956;23.722;2023-06-10T08:51:50;14.82;;;7.47;;
80211;SDS011;70434;37.956;23.722;2023-06-10T08:54:24;13.90;;;7.53;;
80211;SDS011;70434;37.956;23.722;2023-06-10T08:56:52;16.33;;;7.85;;
80211;SDS011;70434;37.956;23.722;2023-06-10T08:59:20;14.05;;;7.80;;
80211;SDS011;70434;37.956;23.722;2023-06-10T09:01:47;11.25;;;7.00;;
80211;SDS011;70434;37.956;23.722;2023-06-10T09:04:13;12.75;;;7.10;;
80211;SDS011;70434;37.956;23.722;2023-06-10T09:06:39;13.43;;;7.90;;
80211;SDS011;70434;37.956;23.722;2023-06-10T09:09:06;14.45;;;7.50;;
80211;SDS011;70434;37.956;23.722;2023-06-10T09:11:32;17.25;;;7.78;;
80211;SDS011;70434;37.956;23.722;2023-06-10T09:13:58;12.45;;;7.40;;
80211;SDS011;70434;37.956;23.722;2023-06-10T09:16:24;10.63;;;7.13;;
80211;SDS011;70434;37.956;23.722;2023-06-10T09:18:51;13.23;;;7.20;;
80211;SDS011;70434;37.956;23.722;2023-06-10T09:21:23;14.88;;;8.05;;
80211;SDS011;70434;37.956;23.722;2023-06-10T09:23:50;10.95;;;7.20;;
80211;SDS011;70434;37.956;23.722;2023-06-10T09:26:16;13.80;;;7.70;;
80211;SDS011;70434;37.956;23.722;2023-06-10T09:28:48;14.48;;;7.63;;
80211;SDS011;70434;37.956;23.722;2023-06-10T09:31:34;14.82;;;7.88;;
80211;SDS011;70434;37.956;23.722;2023-06-10T09:34:13;15.95;;;7.85;;
80211;SDS011;70434;37.956;23.722;2023-06-10T09:36:40;12.15;;;6.78;;
80211;SDS011;70434;37.956;23.722;2023-06-10T09:39:13;11.90;;;7.65;;
80211;SDS011;70434;37.956;23.722;2023-06-10T09:41:43;12.02;;;7.32;;
80211;SDS011;70434;37.956;23.722;2023-06-10T09:44:13;12.88;;;7.20;;
80211;SDS011;70434;37.956;23.722;2023-06-10T09:46:41;13.30;;;6.93;;
80211;SDS011;70434;37.956;23.722;2023-06-10T09:49:07;11.80;;;6.90;;
80211;SDS011;70434;37.956;23.722;2023-06-10T09:51:33;10.57;;;7.13;;
80211;SDS011;70434;37.956;23.722;2023-06-10T09:54:01;16.60;;;7.85;;
80211;SDS011;70434;37.956;23.722;2023-06-10T09:56:34;10.57;;;6.03;;
80211;SDS011;70434;37.956;23.722;2023-06-10T10:01:26;10.75;;;6.30;;
80211;SDS011;70434;37.956;23.722;2023-06-10T10:03:52;11.27;;;6.95;;
80211;SDS011;70434;37.956;23.722;2023-06-10T10:06:19;12.10;;;6.88;;
80211;SDS011;70434;37.956;23.722;2023-06-10T10:08:46;14.00;;;6.88;;
80211;SDS011;70434;37.956;23.722;2023-06-10T10:11:14;13.05;;;7.38;;
80211;SDS011;70434;37.956;23.722;2023-06-10T10:13:42;13.48;;;6.85;;
80211;SDS011;70434;37.956;23.722;2023-06-10T10:16:14;14.50;;;7.20;;
80211;SDS011;70434;37.956;23.722;2023-06-10T10:18:43;12.68;;;6.82;;
80211;SDS011;70434;37.956;23.722;2023-06-10T10:21:11;11.23;;;6.60;;
80211;SDS011;70434;37.956;23.722;2023-06-10T10:24:01;13.95;;;6.90;;
80211;SDS011;70434;37.956;23.722;2023-06-10T10:26:25;15.80;;;6.97;;
80211;SDS011;70434;37.956;23.722;2023-06-10T10:28:58;11.95;;;6.60;;
80211;SDS011;70434;37.956;23.722;2023-06-10T10:31:39;16.65;;;6.80;;
80211;SDS011;70434;37.956;23.722;2023-06-10T10:34:12;13.25;;;6.30;;
80211;SDS011;70434;37.956;23.722;2023-06-10T10:36:43;10.60;;;6.75;;
80211;SDS011;70434;37.956;23.722;2023-06-10T10:39:14;15.00;;;9.40;;
80211;SDS011;70434;37.956;23.722;2023-06-10T10:41:42;12.27;;;6.00;;
80211;SDS011;70434;37.956;23.722;2023-06-10T10:44:10;15.38;;;6.72;;
80211;SDS011;70434;37.956;23.722;2023-06-10T10:46:44;10.48;;;6.07;;
80211;SDS011;70434;37.956;23.722;2023-06-10T10:49:15;10.02;;;6.70;;
80211;SDS011;70434;37.956;23.722;2023-06-10T10:51:59;10.50;;;6.18;;
80211;SDS011;70434;37.956;23.722;2023-06-10T10:54:33;13.15;;;6.18;;
80211;SDS011;70434;37.956;23.722;2023-06-10T10:57:11;10.40;;;6.60;;
80211;SDS011;70434;37.956;23.722;2023-06-10T10:59:52;11.05;;;6.47;;
80211;SDS011;70434;37.956;23.722;2023-06-10T11:02:32;11.60;;;6.78;;
80211;SDS011;70434;37.956;23.722;2023-06-10T11:05:18;9.85;;;6.55;;
80211;SDS011;70434;37.956;23.722;2023-06-10T11:08:09;11.20;;;7.07;;
80211;SDS011;70434;37.956;23.722;2023-06-10T11:10:37;8.88;;;6.57;;
80211;SDS011;70434;37.956;23.722;2023-06-10T11:13:08;12.77;;;6.72;;
80211;SDS011;70434;37.956;23.722;2023-06-10T11:15:44;12.75;;;6.75;;
80211;SDS011;70434;37.956;23.722;2023-06-10T11:18:19;9.73;;;6.30;;
80211;SDS011;70434;37.956;23.722;2023-06-10T11:28:35;14.05;;;6.18;;
80211;SDS011;70434;37.956;23.722;2023-06-10T11:31:00;20.08;;;7.68;;
80211;SDS011;70434;37.956;23.722;2023-06-10T11:33:32;10.85;;;7.25;;
80211;SDS011;70434;37.956;23.722;2023-06-10T11:35:58;10.80;;;6.57;;
80211;SDS011;70434;37.956;23.722;2023-06-10T11:38:24;13.07;;;6.32;;
80211;SDS011;70434;37.956;23.722;2023-06-10T11:40:51;10.63;;;5.93;;
80211;SDS011;70434;37.956;23.722;2023-06-10T11:43:18;12.63;;;6.72;;
80211;SDS011;70434;37.956;23.722;2023-06-10T11:45:44;13.70;;;6.88;;
80211;SDS011;70434;37.956;23.722;2023-06-10T11:48:11;11.45;;;6.80;;
80211;SDS011;70434;37.956;23.722;2023-06-10T11:50:37;10.80;;;6.50;;
80211;SDS011;70434;37.956;23.722;2023-06-10T11:53:07;11.10;;;7.05;;
80211;SDS011;70434;37.956;23.722;2023-06-10T11:55:43;14.13;;;7.03;;
80211;SDS011;70434;37.956;23.722;2023-06-10T11:58:14;12.20;;;6.05;;
80211;SDS011;70434;37.956;23.722;2023-06-10T12:03:26;7.18;;;5.13;;
80211;SDS011;70434;37.956;23.722;2023-06-10T12:06:01;10.55;;;6.55;;
80211;SDS011;70434;37.956;23.722;2023-06-10T12:08:30;9.52;;;5.88;;
80211;SDS011;70434;37.956;23.722;2023-06-10T12:10:57;9.05;;;6.22;;
80211;SDS011;70434;37.956;23.722;2023-06-10T12:13:27;9.85;;;6.63;;
80211;SDS011;70434;37.956;23.722;2023-06-10T12:15:53;9.98;;;6.20;;
80211;SDS011;70434;37.956;23.722;2023-06-10T12:18:20;11.90;;;7.43;;
80211;SDS011;70434;37.956;23.722;2023-06-10T12:20:50;12.50;;;5.82;;
80211;SDS011;70434;37.956;23.722;2023-06-10T12:23:16;10.35;;;5.53;;
80211;SDS011;70434;37.956;23.722;2023-06-10T12:25:53;9.27;;;5.40;;
80211;SDS011;70434;37.956;23.722;2023-06-10T12:28:21;8.57;;;6.00;;
80211;SDS011;70434;37.956;23.722;2023-06-10T12:30:51;9.57;;;6.05;;
80211;SDS011;70434;37.956;23.722;2023-06-10T12:33:31;9.93;;;5.88;;
80211;SDS011;70434;37.956;23.722;2023-06-10T12:35:56;8.32;;;5.38;;
80211;SDS011;70434;37.956;23.722;2023-06-10T12:38:23;8.73;;;5.57;;
80211;SDS011;70434;37.956;23.722;2023-06-10T12:40:49;8.60;;;5.75;;
80211;SDS011;70434;37.956;23.722;2023-06-10T12:43:22;9.75;;;5.50;;
80211;SDS011;70434;37.956;23.722;2023-06-10T12:45:49;9.15;;;5.70;;
80211;SDS011;70434;37.956;23.722;2023-06-10T12:48:18;13.60;;;6.30;;
80211;SDS011;70434;37.956;23.722;2023-06-10T12:50:52;10.98;;;5.97;;
80211;SDS011;70434;37.956;23.722;2023-06-10T12:53:19;10.30;;;6.32;;
80211;SDS011;70434;37.956;23.722;2023-06-10T12:55:46;10.27;;;5.63;;
80211;SDS011;70434;37.956;23.722;2023-06-10T12:58:12;11.60;;;5.90;;
80211;SDS011;70434;37.956;23.722;2023-06-10T13:00:38;10.63;;;5.82;;
80211;SDS011;70434;37.956;23.722;2023-06-10T13:03:05;13.30;;;5.45;;
80211;SDS011;70434;37.956;23.722;2023-06-10T13:05:31;7.50;;;5.65;;
80211;SDS011;70434;37.956;23.722;2023-06-10T13:07:58;10.75;;;6.43;;
80211;SDS011;70434;37.956;23.722;2023-06-10T13:10:24;8.90;;;5.97;;
80211;SDS011;70434;37.956;23.722;2023-06-10T13:12:51;10.25;;;6.35;;
80211;SDS011;70434;37.956;23.722;2023-06-10T13:15:17;10.82;;;6.05;;
80211;SDS011;70434;37.956;23.722;2023-06-10T13:17:43;12.02;;;6.78;;
80211;SDS011;70434;37.956;23.722;2023-06-10T13:20:13;11.40;;;7.68;;
80211;SDS011;70434;37.956;23.722;2023-06-10T13:22:39;9.27;;;5.40;;
80211;SDS011;70434;37.956;23.722;2023-06-10T13:25:05;9.63;;;5.93;;
80211;SDS011;70434;37.956;23.722;2023-06-10T13:27:32;11.30;;;6.03;;
80211;SDS011;70434;37.956;23.722;2023-06-10T13:29:59;12.07;;;6.57;;
80211;SDS011;70434;37.956;23.722;2023-06-10T13:32:24;12.23;;;6.22;;
80211;SDS011;70434;37.956;23.722;2023-06-10T13:34:50;9.30;;;5.47;;
80211;SDS011;70434;37.956;23.722;2023-06-10T13:37:16;11.98;;;6.38;;
80211;SDS011;70434;37.956;23.722;2023-06-10T13:39:45;9.52;;;6.63;;
80211;SDS011;70434;37.956;23.722;2023-06-10T13:42:18;15.60;;;6.10;;
80211;SDS011;70434;37.956;23.722;2023-06-10T13:44:47;11.47;;;6.10;;
80211;SDS011;70434;37.956;23.722;2023-06-10T13:47:14;10.77;;;6.00;;
80211;SDS011;70434;37.956;23.722;2023-06-10T13:49:40;12.30;;;6.15;;
80211;SDS011;70434;37.956;23.722;2023-06-10T13:52:06;10.48;;;5.88;;
80211;SDS011;70434;37.956;23.722;2023-06-10T13:54:33;9.38;;;5.45;;
80211;SDS011;70434;37.956;23.722;2023-06-10T13:57:00;10.32;;;6.25;;
80211;SDS011;70434;37.956;23.722;2023-06-10T13:59:26;7.13;;;5.57;;
80211;SDS011;70434;37.956;23.722;2023-06-10T14:01:52;9.40;;;5.80;;
80211;SDS011;70434;37.956;23.722;2023-06-10T14:04:18;6.53;;;4.93;;
80211;SDS011;70434;37.956;23.722;2023-06-10T14:06:44;7.63;;;5.25;;
80211;SDS011;70434;37.956;23.722;2023-06-10T14:09:10;8.27;;;5.50;;
80211;SDS011;70434;37.956;23.722;2023-06-10T14:11:37;9.02;;;5.25;;
80211;SDS011;70434;37.956;23.722;2023-06-10T14:14:03;9.45;;;5.25;;
80211;SDS011;70434;37.956;23.722;2023-06-10T14:16:32;7.97;;;5.85;;
80211;SDS011;70434;37.956;23.722;2023-06-10T14:18:58;7.68;;;5.30;;
80211;SDS011;70434;37.956;23.722;2023-06-10T14:21:47;8.73;;;4.97;;
80211;SDS011;70434;37.956;23.722;2023-06-10T14:24:14;8.90;;;5.88;;
80211;SDS011;70434;37.956;23.722;2023-06-10T14:26:40;11.77;;;5.78;;
80211;SDS011;70434;37.956;23.722;2023-06-10T14:29:06;7.63;;;5.15;;
80211;SDS011;70434;37.956;23.722;2023-06-10T14:31:32;13.25;;;6.60;;
80211;SDS011;70434;37.956;23.722;2023-06-10T14:33:58;8.82;;;5.82;;
80211;SDS011;70434;37.956;23.722;2023-06-10T14:36:23;11.23;;;5.15;;
80211;SDS011;70434;37.956;23.722;2023-06-10T14:38:49;6.97;;;5.10;;
80211;SDS011;70434;37.956;23.722;2023-06-10T14:41:15;10.25;;;6.15;;
80211;SDS011;70434;37.956;23.722;2023-06-10T14:43:40;8.07;;;5.57;;
80211;SDS011;70434;37.956;23.722;2023-06-10T14:46:06;8.63;;;6.03;;